»·PEaware :: N442WF KYKM-KPDX

N442WF :: KYKM-KPDX

FLIGHT INFORMATION

Flight Status: Arrived
Operator: Privately registered:
United States
More flights under this callsign
Pilot: Brandon F. (14792)
Aircraft: Unknown
(PIPA)
More flights by this aircraft type
Origin: KYKM Yakima Air Term/Mcallister
United States
Destination: KPDX Portland Intl
United States
More flights between these airports :: More routes between these airports
Route: +YKM V468 BTG
File this flight plan on PilotEdge
Remarks:
Altitude:
(Current/Filed)
10,000ft
Speed:
(Current/Filed)
180kts
Departed: 04-Jan-18 08:51 PM
Arrived: 04-Jan-18 09:34 PM
Distance/Time
Traveled:
103nm/0:43
Distance/Time
To Go:
Arrived

Flight Plot

Page will automatically refresh every two minutes.

Flight plan parsing failed; only flown route is shown


Map Options




Map Legend


Flown Route
Filed Route
Departure Airport
Arrival Airport
Navaid (VOR, NDB)
Fix

Horizontal Profiles

Position Reports

Time Latitude Longitude Heading Altitude Ground
Speed
04-Jan-18 20:37 46.569880 -120.540588 107 1098ft 0kts
04-Jan-18 20:38 46.569880 -120.540588 107 1098ft 0kts
04-Jan-18 20:39 46.569880 -120.540588 107 1098ft 0kts
04-Jan-18 20:40 46.569880 -120.540588 107 1098ft 0kts
04-Jan-18 20:41 46.569880 -120.540588 107 1098ft 0kts
04-Jan-18 20:42 46.569880 -120.540588 107 1098ft 0kts
04-Jan-18 20:43 46.569880 -120.540588 107 1098ft 0kts
04-Jan-18 20:44 46.569880 -120.540588 107 1098ft 0kts
04-Jan-18 20:45 46.569880 -120.540588 107 1098ft 0kts
04-Jan-18 20:46 46.569880 -120.540588 107 1098ft 0kts
04-Jan-18 20:47 46.569880 -120.540588 107 1098ft 0kts
04-Jan-18 20:48 46.569880 -120.540588 107 1098ft 0kts
04-Jan-18 20:49 46.569880 -120.540588 107 1098ft 0kts
04-Jan-18 20:50 46.569880 -120.540588 107 1098ft 0kts
04-Jan-18 20:51 46.569880 -120.540588 107 1098ft 0kts
04-Jan-18 20:52 46.569840 -120.540464 135 1098ft 3kts
04-Jan-18 20:53 46.568443 -120.538458 108 1098ft 9kts
04-Jan-18 20:54 46.567046 -120.532974 110 1098ft 11kts
04-Jan-18 20:55 46.566554 -120.531584 154 1098ft 0kts
04-Jan-18 20:56 46.566547 -120.531579 153 1098ft 1kts
04-Jan-18 20:57 46.571283 -120.552416 306 1399ft 118kts
04-Jan-18 20:58 46.601822 -120.574981 334 3597ft 105kts
04-Jan-18 20:59 46.623746 -120.589666 334 4978ft 105kts
04-Jan-18 21:00 46.620315 -120.617378 195 6473ft 114kts
04-Jan-18 21:01 46.589954 -120.626100 194 7907ft 115kts
04-Jan-18 21:02 46.559726 -120.633994 194 9255ft 114kts
04-Jan-18 21:03 46.526632 -120.642573 194 10095ft 146kts
04-Jan-18 21:04 46.480750 -120.656036 195 10092ft 181kts
04-Jan-18 21:05 46.430645 -120.671107 194 9961ft 191kts
04-Jan-18 21:06 46.389054 -120.716995 231 9176ft 202kts
04-Jan-18 21:07 46.354567 -120.773645 230 8262ft 208kts
04-Jan-18 21:08 46.319627 -120.829098 229 7976ft 193kts
04-Jan-18 21:09 46.290005 -120.875307 229 7971ft 187kts
04-Jan-18 21:10 46.261882 -120.918777 229 7971ft 187kts
04-Jan-18 21:11 46.226367 -120.973317 229 7974ft 194kts
04-Jan-18 21:12 46.190379 -121.028252 229 7983ft 197kts
04-Jan-18 21:13 46.152837 -121.085278 229 7991ft 197kts
04-Jan-18 21:14 45.968679 -121.378354 256 8000ft 190kts
04-Jan-18 21:15 45.956322 -121.447533 257 8000ft 191kts
04-Jan-18 21:16 45.943265 -121.520905 257 7999ft 191kts
04-Jan-18 21:17 45.930246 -121.593640 257 7999ft 191kts
04-Jan-18 21:18 45.916997 -121.667548 257 7999ft 191kts
04-Jan-18 21:19 45.904502 -121.736942 258 7957ft 192kts
04-Jan-18 21:20 45.891274 -121.812431 249 7891ft 208kts
04-Jan-18 21:21 45.880211 -121.873170 248 7835ft 213kts
04-Jan-18 21:22 45.870154 -121.928422 247 7785ft 211kts
04-Jan-18 21:23 45.855474 -122.008802 247 7590ft 212kts
04-Jan-18 21:24 45.846043 -122.060226 248 7102ft 221kts
04-Jan-18 21:25 45.834414 -122.124450 248 6443ft 228kts
04-Jan-18 21:26 45.819474 -122.206673 248 5787ft 226kts
04-Jan-18 21:27 45.807285 -122.273529 247 5777ft 217kts
04-Jan-18 21:28 45.796042 -122.334569 248 5779ft 216kts
04-Jan-18 21:29 45.784962 -122.394096 247 5780ft 216kts
04-Jan-18 21:30 45.771083 -122.468227 248 5780ft 217kts
04-Jan-18 21:31 45.751108 -122.547886 226 5778ft 208kts
04-Jan-18 21:32 45.716944 -122.614400 226 5725ft 203kts
04-Jan-18 21:33 45.691395 -122.668037 225 4703ft 150kts
04-Jan-18 21:34 45.667895 -122.717683 215 3301ft 132kts
04-Jan-18 21:35 45.635668 -122.711665 101 2293ft 137kts
04-Jan-18 21:36 45.622611 -122.672976 108 861ft 88kts
04-Jan-18 21:37 45.611467 -122.640342 112 755ft 70kts
04-Jan-18 21:38 45.601388 -122.613284 111 305ft 56kts
04-Jan-18 21:39 45.594954 -122.596377 110 43ft 42kts
04-Jan-18 21:40 45.593376 -122.591839 120 27ft 0kts
04-Jan-18 21:41 45.590279 -122.584393 117 27ft 23kts
04-Jan-18 21:42 45.587845 -122.582868 213 27ft 21kts
04-Jan-18 21:43 45.587322 -122.583216 133 27ft 0kts

Navigation Log

Ident Type
Flight plan parsing failed, navigation log unavailable